Skip Navigation Links
NOAA logo - Click to go to the NOAA homepage
NOAA's National Weather Service
Alaska Aviation Weather Unit
  NWS logo - Click to go to the NWS homepage
Left Navbar Graphic     12 AKDT = 20 GMT

   
NOAA is celebrating 200 years of science, service, and stewardship. Visit the NOAA 200th celebration Web site to learn more.
USA.gov is the U.S. Government's official Web portal to all Federal, state and local government Web resources and services.
Facebook
NWS on Facebook

Important Change Regarding the AAWU Web Presence

 

Over the last several months, the AAWU has been working to navigate its webpages to a nationally supported server. Security, as well as other needs, have necessitated the change.  We have been given an extension for the site changeover while we diligently work at addressing feedback received. As of July 14, 2017, aawu.arh.noaa.gov will be discontinued. The new AAWU web address is weather.gov/aawu. It is now live and will run in-parallel with the old site until it is discontinued on July 14, 2017. Please continue to send any feedback or questions regarding the new webpages to nws.ar.aawu.webauthors@noaa.gov.  Thank you for your patience during this time of transition.
AAWU Home :: Display TAF Add Bookmark
PABV 251456Z AUTO 00000KT 10SM -RA OVC008 13/13 A3002 RMK AO2
     SLP173 P0001 60002 T01330128 55003 $=

METAR PABV 251556Z AUTO 00000KT 10SM OVC006 13/12 A3001 RMK AO2
 RAE29 SLP172 P0000 T01330122 $=

METAR PABV 251656Z AUTO 00000KT 10SM OVC006 13/12 A3001 RMK AO2
     RAB1558E12 SLP170 P0000 T01330122 $=

SPECI PABV 251754Z AUTO 00000KT 2SM -RA BR OVC006 13/13 A3001 RMK AO2
     RAB25 P0000 $=

METAR PABV 251756Z AUTO 00000KT 2SM -RA BR OVC006 13/13 A3001 RMK AO2
     RAB25 SLP171 P0000 60002 T01330128 10139 20122 56000 $=

SPECI PABV 251805Z AUTO 00000KT 1 3/4SM -RA BR OVC004 13/13 A3001 RMK
     AO2 P0001 $=

SPECI PABV 251821Z AUTO 00000KT 3SM -RA BR OVC004 13/13 A3001 RMK AO2
     P0001 $=

SPECI PABV 251852Z AUTO 00000KT 3SM -RA BR OVC006 13/13 A3001 RMK AO2
     P0002 $=

METAR PABV 251856Z AUTO 00000KT 3SM -RA BR OVC006 13/13 A3001 RMK AO2
     SLP169 P0002 T01330128 $=

SPECI PABV 251916Z AUTO 02003KT 4SM -RA BR OVC004 13/13 A3000 RMK AO2
     CIG 002V009 P0000 $=

SPECI PABV 251943Z AUTO 01003KT 4SM -RA BR BKN002 OVC018 13/13 A3000 RMK
     AO2 CIG 002V007 P0000 $=

METAR PABV 251956Z AUTO 02003KT 5SM -RA BR BKN002 OVC018 13/12 A3000 RMK
     AO2 SLP168 P0000 T01330122 $=

SPECI PABV 252036Z AUTO 00000KT 8SM -RA SCT002 BKN007 OVC039 13/13
 A3000 RMK AO2 RAE03B22 P0000 $=

SPECI PABV 252043Z AUTO 05003KT 6SM -RA BR BKN005 OVC039 13/13 A3000
 RMK AO2 RAE03B22 CIG 003V007 P0000 $=


NOAA's National Weather Service
Alaska Aviation Weather Unit
6930 Sand Lake Road
Anchorage, AK 99502-1845
Disclaimer
Credits
Glossary
Privacy Policy
About Us
Career Opportunities
Contact AAWU Internet Services Site last modified: April, 17th 2012